Time;durP1;ratioP1;P1;durP2;ratioP2;P2;SDS_P1;SDS_P2;PMS_P1;PMS_P2;Temp;Humidity;BMP_temperature;BMP_pressure;BME280_temperature;BME280_humidity;BME280_pressure;Samples;Min_cycle;Max_cycle;Signal;HPM_P1;HPM_P2
2023/02/24 00:01:36;;;;;;;26.05;1.88;;;;;;;4.26;100.00;101597.88;5059616;28;20155;-50
2023/02/24 00:04:06;;;;;;;23.30;2.63;;;;;;;4.22;100.00;101583.13;5069442;28;20033;-50
2023/02/24 00:06:36;;;;;;;14.95;1.45;;;;;;;4.22;100.00;101583.13;5069933;28;20035;-48
2023/02/24 00:09:11;;;;;;;29.33;2.33;;;;;;;4.20;100.00;101577.91;5068838;28;20029;-53
2023/02/24 00:11:39;;;;;;;19.88;2.45;;;;;;;4.18;100.00;101583.34;5067804;28;21394;-49
2023/02/24 00:14:11;;;;;;;17.42;2.25;;;;;;;4.16;100.00;101571.97;5050267;28;20393;-48
2023/02/24 00:16:37;;;;;;;23.55;1.83;;;;;;;4.15;100.00;101572.94;5053669;28;20020;-49
2023/02/24 00:19:06;;;;;;;15.27;1.25;;;;;;;4.15;100.00;101564.94;5054819;28;20107;-48
2023/02/24 00:21:32;;;;;;;22.98;2.70;;;;;;;4.09;100.00;101551.28;5073899;28;20369;-50
2023/02/24 00:24:00;;;;;;;14.52;1.50;;;;;;;4.09;100.00;101551.28;5073639;28;20035;-51
2023/02/24 00:26:28;;;;;;;18.45;1.88;;;;;;;4.04;100.00;101553.47;5072174;28;20542;-50
2023/02/24 00:28:54;;;;;;;;;;;;;;;4.01;100.00;101546.56;5072054;28;20043;-49
2023/02/24 00:31:22;;;;;;;17.77;1.48;;;;;;;3.98;100.00;101544.16;5054615;28;20371;-49
2023/02/24 00:33:47;;;;;;;16.45;1.70;;;;;;;3.96;100.00;101546.06;5071989;28;20511;-49
2023/02/24 00:36:14;;;;;;;16.35;2.00;;;;;;;3.95;100.00;101539.06;5072553;28;20020;-50
2023/02/24 00:38:45;;;;;;;14.90;1.90;;;;;;;3.93;100.00;101541.00;5072526;28;20364;-50
2023/02/24 00:41:21;;;;;;;22.33;1.83;;;;;;;3.90;100.00;101542.09;5073398;28;20024;-49
2023/02/24 00:43:48;;;;;;;23.85;1.50;;;;;;;3.87;100.00;101536.13;5072551;28;20040;-49
2023/02/24 00:46:19;;;;;;;25.38;1.90;;;;;;;3.83;100.00;101530.22;5071495;28;20028;-51
2023/02/24 00:48:48;;;;;;;24.92;2.00;;;;;;;3.82;100.00;101525.88;5047848;28;20032;-49
2023/02/24 00:51:16;;;;;;;17.75;2.25;;;;;;;3.78;100.00;101531.56;5073040;28;20020;-49
2023/02/24 00:53:43;;;;;;;21.27;2.70;;;;;;;3.79;100.00;101519.91;5072548;28;20077;-50
2023/02/24 00:56:15;;;;;;;10.00;1.50;;;;;;;3.78;100.00;101521.75;5071623;28;20103;-50
2023/02/24 00:58:41;;;;;;;12.57;1.90;;;;;;;3.84;100.00;101520.41;5070193;28;20472;-49
2023/02/24 01:01:13;;;;;;;18.38;1.70;;;;;;;3.81;100.00;101507.34;5054762;28;20028;-49
2023/02/24 01:03:38;;;;;;;21.15;1.77;;;;;;;3.79;100.00;101502.16;5071630;28;20459;-48
2023/02/24 01:06:05;;;;;;;20.60;1.52;;;;;;;3.81;100.00;101499.34;5071737;28;20024;-49
2023/02/24 01:08:35;;;;;;;20.67;1.70;;;;;;;3.83;100.00;101502.75;5072470;28;20082;-49
2023/02/24 01:13:47;;;;;;;18.88;1.98;;;;;;;3.91;100.00;101498.50;5071077;28;20437;-49
2023/02/24 01:16:17;;;;;;;20.90;2.38;;;;;;;3.92;100.00;101496.69;5072258;28;20115;-48
2023/02/24 01:18:44;;;;;;;28.40;1.83;;;;;;;3.93;100.00;101493.06;5054729;28;20036;-49
2023/02/24 01:21:11;;;;;;;18.40;1.65;;;;;;;3.92;100.00;101486.03;5071416;28;20027;-49
2023/02/24 01:23:37;;;;;;;14.45;1.75;;;;;;;3.93;100.00;101477.09;5072526;28;20028;-50
2023/02/24 01:26:02;;;;;;;34.78;2.05;;;;;;;3.96;100.00;101466.19;5072812;28;20081;-49
2023/02/24 01:28:29;;;;;;;17.83;2.08;;;;;;;4.00;100.00;101462.28;5070297;28;20067;-50
2023/02/24 01:30:54;;;;;;;22.00;1.98;;;;;;;4.02;100.00;101463.00;5071891;28;20021;-50
2023/02/24 01:33:20;;;;;;;32.05;1.85;;;;;;;4.04;100.00;101458.41;5071098;28;20040;-49
2023/02/24 01:35:46;;;;;;;21.98;2.10;;;;;;;4.08;100.00;101451.88;5072608;28;20055;-49
2023/02/24 01:38:12;;;;;;;22.92;2.60;;;;;;;4.12;100.00;101445.31;5071488;28;20040;-49
2023/02/24 01:40:37;;;;;;;22.35;2.22;;;;;;;4.16;100.00;101437.91;5071354;28;20089;-50
2023/02/24 01:43:07;;;;;;;20.30;1.75;;;;;;;4.12;100.00;101437.31;5070982;28;20128;-50
2023/02/24 01:45:35;;;;;;;28.33;2.13;;;;;;;4.09;100.00;101429.59;5071749;28;20429;-50
2023/02/24 01:48:04;;;;;;;17.75;1.50;;;;;;;4.08;100.00;101435.03;5072198;28;20017;-50
2023/02/24 01:50:31;;;;;;;20.48;1.77;;;;;;;4.03;100.00;101424.78;5071078;28;20029;-50
2023/02/24 01:52:59;;;;;;;16.40;2.47;;;;;;;4.00;100.00;101430.31;5054083;28;20494;-48
2023/02/24 01:55:30;;;;;;;22.83;1.83;;;;;;;3.96;100.00;101423.56;5069814;28;20063;-49
2023/02/24 01:57:57;;;;;;;26.30;1.90;;;;;;;3.98;100.00;101418.97;5072664;28;20032;-48
2023/02/24 02:00:43;;;;;;;17.47;2.13;;;;;;;3.96;100.00;101411.09;5052440;28;20028;-52
2023/02/24 02:03:32;;;;;;;11.85;1.67;;;;;;;4.00;100.00;101417.00;5070776;28;20499;-49
2023/02/24 02:06:06;;;;;;;17.48;1.55;;;;;;;4.01;100.00;101409.88;5071620;28;20020;-51
2023/02/24 02:08:35;;;;;;;14.82;1.58;;;;;;;4.02;100.00;101401.75;5068462;28;20137;-51
2023/02/24 02:11:05;;;;;;;20.60;1.50;;;;;;;4.03;100.00;101403.47;5052982;28;20040;-50
2023/02/24 02:13:34;;;;;;;19.85;1.67;;;;;;;4.01;100.00;101400.06;5068732;28;20024;-49
2023/02/24 02:16:12;;;;;;;15.25;1.30;;;;;;;4.00;100.00;101395.69;5072166;28;20029;-49
2023/02/24 02:18:57;;;;;;;;;;;;;;;3.97;100.00;101388.81;5072178;28;20088;-49
2023/02/24 02:21:32;;;;;;;11.50;1.73;;;;;;;3.94;100.00;101385.56;5070976;28;19919;-49
2023/02/24 02:24:10;;;;;;;16.33;1.73;;;;;;;3.92;100.00;101387.50;5072292;28;20046;-48
2023/02/24 02:27:03;;;;;;;23.00;2.45;;;;;;;3.90;100.00;101379.66;5070882;28;20128;-55
2023/02/24 02:29:55;;;;;;;24.95;2.15;;;;;;;3.84;100.00;101376.63;5071750;28;20040;-49
2023/02/24 02:32:37;;;;;;;13.38;1.60;;;;;;;3.86;100.00;101369.38;5053942;28;20549;-49
2023/02/24 02:35:19;;;;;;;22.90;2.38;;;;;;;3.84;100.00;101371.28;5052417;28;20111;-49
2023/02/24 02:37:57;;;;;;;16.90;1.40;;;;;;;3.81;100.00;101372.41;5070024;28;20072;-48
2023/02/24 02:40:32;;;;;;;23.38;1.75;;;;;;;3.81;100.00;101367.06;5072634;28;20483;-49
2023/02/24 02:43:24;;;;;;;8.60;0.98;;;;;;;3.86;100.00;101364.03;5053514;28;20123;-49
2023/02/24 02:46:02;;;;;;;26.08;1.73;;;;;;;3.91;100.00;101356.53;5038570;28;20034;-49
2023/02/24 02:48:35;;;;;;;19.95;1.17;;;;;;;3.94;100.00;101357.09;5053643;28;20028;-51
2023/02/24 02:51:06;;;;;;;11.90;1.48;;;;;;;3.99;100.00;101353.22;5070346;28;20060;-49
2023/02/24 02:53:58;;;;;;;22.25;1.23;;;;;;;4.03;100.00;101344.88;5048745;28;20032;-49
2023/02/24 02:56:31;;;;;;;28.85;2.20;;;;;;;4.05;100.00;101337.56;5052664;28;20029;-50
2023/02/24 02:58:57;;;;;;;23.63;1.40;;;;;;;4.07;100.00;101329.47;5069941;28;20078;-49
2023/02/24 03:01:27;;;;;;;17.65;1.50;;;;;;;4.03;100.00;101323.56;5051916;28;20021;-49
2023/02/24 03:03:55;;;;;;;22.77;2.65;;;;;;;4.03;100.00;101328.00;5052245;28;20083;-49
2023/02/24 03:06:23;;;;;;;;;;;;;;;4.05;100.00;101320.75;5034870;28;20036;-50
2023/02/24 03:09:10;;;;;;;27.38;1.95;;;;;;;4.06;100.00;101317.97;5051764;28;20379;-49
2023/02/24 03:11:36;;;;;;;14.70;1.33;;;;;;;4.05;100.00;101316.25;5070450;28;20039;-50
2023/02/24 03:14:04;;;;;;;15.07;1.60;;;;;;;4.06;100.00;101306.47;5031906;28;20390;-50
2023/02/24 03:16:31;;;;;;;21.10;1.58;;;;;;;4.07;100.00;101308.16;5038327;28;20027;-49
2023/02/24 03:19:03;;;;;;;19.15;1.23;;;;;;;4.09;100.00;101299.06;5052695;28;20459;-51
2023/02/24 03:21:33;;;;;;;11.13;1.05;;;;;;;4.15;100.00;101303.88;5035748;28;20051;-48
2023/02/24 03:24:00;;;;;;;21.60;1.45;;;;;;;4.17;100.00;101293.94;5070235;28;20431;-48
2023/02/24 03:26:36;;;;;;;15.57;2.65;;;;;;;4.17;100.00;101288.59;5053042;28;20029;-48
2023/02/24 03:29:05;;;;;;;25.15;1.73;;;;;;;4.22;100.00;101290.06;5069552;28;20033;-48
2023/02/24 03:31:38;;;;;;;20.58;1.73;;;;;;;4.30;100.00;101291.09;5050769;28;20059;-49
2023/02/24 03:34:23;;;;;;;15.57;1.90;;;;;;;4.30;100.00;101282.25;5069687;28;20460;-49
2023/02/24 03:36:48;;;;;;;20.45;1.60;;;;;;;4.32;100.00;101274.97;5035653;28;20032;-49
2023/02/24 03:39:14;;;;;;;22.52;1.80;;;;;;;4.32;100.00;101267.81;5069794;28;20029;-49
2023/02/24 03:41:48;;;;;;;10.57;2.25;;;;;;;4.36;100.00;101266.56;5069034;28;20047;-49
2023/02/24 03:44:14;;;;;;;18.88;2.53;;;;;;;4.38;100.00;101258.44;5051911;28;20039;-49
2023/02/24 03:46:41;;;;;;;23.05;1.40;;;;;;;4.37;100.00;101262.06;5070078;28;20020;-50
2023/02/24 03:49:12;;;;;;;21.63;2.87;;;;;;;4.37;100.00;101254.09;5069441;28;20029;-48
2023/02/24 03:51:43;;;;;;;15.85;1.63;;;;;;;4.36;100.00;101250.56;5068558;28;20020;-49
2023/02/24 03:54:29;;;;;;;13.93;1.23;;;;;;;4.35;100.00;101248.91;5049940;28;20020;-49
2023/02/24 03:57:21;;;;;;;16.63;2.33;;;;;;;4.32;100.00;101249.16;5052610;28;20028;-48
2023/02/24 04:00:25;;;;;;;19.38;1.50;;;;;;;4.30;100.00;101247.59;5070062;28;20032;-49
2023/02/24 04:02:45;;;;;;;20.93;1.83;;;;;;;4.25;100.00;101245.34;5054108;28;20083;-49
2023/02/24 04:05:20;;;;;;;18.92;1.30;;;;;;;4.22;100.00;101242.09;5070778;28;20068;-48
2023/02/24 04:08:02;;;;;;;15.68;1.77;;;;;;;4.20;100.00;101239.53;5070343;28;20028;-49
2023/02/24 04:10:51;;;;;;;16.48;1.73;;;;;;;4.18;100.00;101245.00;5051302;28;20107;-50
2023/02/24 04:13:24;;;;;;;14.75;1.98;;;;;;;4.18;100.00;101237.00;5068366;28;20043;-48
2023/02/24 04:15:57;;;;;;;15.73;1.67;;;;;;;4.17;100.00;101227.34;5052020;28;20048;-48
2023/02/24 04:18:27;;;;;;;16.50;1.52;;;;;;;4.23;100.00;101231.28;5066310;28;20175;-49
2023/02/24 04:20:54;;;;;;;19.63;1.70;;;;;;;4.23;100.00;101233.94;5050499;28;20051;-49
2023/02/24 04:23:26;;;;;;;24.20;2.93;;;;;;;4.26;100.00;101224.84;5067941;28;20025;-50
2023/02/24 04:25:55;;;;;;;23.48;3.38;;;;;;;4.31;100.00;101227.97;5049557;28;20475;-50
2023/02/24 04:28:21;;;;;;;32.00;3.55;;;;;;;4.31;100.00;101215.50;5067624;28;20060;-48
2023/02/24 04:30:49;;;;;;;24.60;3.97;;;;;;;4.33;100.00;101212.69;5046978;28;20032;-50
2023/02/24 04:33:15;;;;;;;28.63;4.03;;;;;;;4.38;100.00;101207.81;5035456;28;20045;-48
2023/02/24 04:35:44;;;;;;;34.85;4.10;;;;;;;4.43;100.00;101202.94;5050051;28;20544;-48
2023/02/24 04:38:10;;;;;;;21.73;3.47;;;;;;;4.43;100.00;101197.59;5049351;28;20035;-49
2023/02/24 04:40:35;;;;;;;38.80;3.97;;;;;;;4.44;100.00;101199.28;5068114;28;20060;-48
2023/02/24 04:43:01;;;;;;;22.73;3.92;;;;;;;4.45;100.00;101185.00;5068109;28;20387;-50
2023/02/24 04:45:29;;;;;;;21.45;3.10;;;;;;;4.45;100.00;101182.34;5066922;28;20060;-49
2023/02/24 04:47:59;;;;;;;24.60;4.22;;;;;;;4.48;100.00;101183.88;5068289;28;20025;-51
2023/02/24 04:50:27;;;;;;;33.78;4.28;;;;;;;4.48;100.00;101184.72;5049940;28;20160;-49
2023/02/24 04:52:56;;;;;;;35.55;4.88;;;;;;;4.47;100.00;101183.03;5068103;28;20016;-48
2023/02/24 04:55:24;;;;;;;28.63;3.80;;;;;;;4.47;100.00;101176.84;5067955;28;20071;-49
2023/02/24 04:57:52;;;;;;;42.22;4.43;;;;;;;4.46;100.00;101177.84;5066168;28;20467;-48
2023/02/24 05:00:32;;;;;;;37.70;4.15;;;;;;;4.46;100.00;101164.50;5050232;28;20304;-49
2023/02/24 05:03:00;;;;;;;35.13;3.38;;;;;;;4.44;100.00;101171.78;5064577;28;20029;-49
2023/02/24 05:05:26;;;;;;;25.55;3.53;;;;;;;4.45;100.00;101153.03;5053069;28;20029;-49
2023/02/24 05:08:01;;;;;;;25.50;4.28;;;;;;;4.48;100.00;101154.56;5070982;28;20058;-49
2023/02/24 05:10:28;;;;;;;25.95;4.40;;;;;;;4.49;100.00;101157.09;5071470;28;20040;-50
2023/02/24 05:12:56;;;;;;;22.50;3.35;;;;;;;4.50;100.00;101156.13;5048631;28;20166;-50
2023/02/24 05:15:29;;;;;;;18.60;3.33;;;;;;;4.53;100.00;101145.19;5071144;28;20036;-49
2023/02/24 05:17:57;;;;;;;26.23;3.88;;;;;;;4.53;100.00;101133.66;5053868;28;20066;-49
2023/02/24 05:23:08;;;;;;;31.27;4.10;;;;;;;4.53;100.00;101137.19;5068204;28;20098;-49
2023/02/24 05:25:36;;;;;;;27.08;3.17;;;;;;;4.55;100.00;101126.38;5070649;28;20120;-50
2023/02/24 05:28:02;;;;;;;29.45;3.95;;;;;;;4.55;100.00;101126.38;5052031;28;20029;-47
2023/02/24 05:30:28;;;;;;;37.20;4.15;;;;;;;4.55;100.00;101118.38;5047547;28;20024;-48
2023/02/24 05:32:55;;;;;;;27.10;4.10;;;;;;;4.54;100.00;101120.22;5072388;28;20149;-49
2023/02/24 05:35:20;;;;;;;39.65;4.05;;;;;;;4.55;100.00;101119.22;5069316;28;20086;-49
2023/02/24 05:37:46;;;;;;;19.50;3.80;;;;;;;4.55;100.00;101121.88;5071017;28;20028;-49
2023/02/24 05:40:12;;;;;;;39.63;4.25;;;;;;;4.54;100.00;101117.53;5070921;28;20085;-49
2023/02/24 05:42:39;;;;;;;37.63;3.35;;;;;;;4.57;100.00;101111.09;5082642;28;20085;-49
2023/02/24 05:45:06;;;;;;;42.63;4.77;;;;;;;4.60;100.00;101108.16;5068841;28;20032;-49
2023/02/24 05:47:31;;;;;;;30.73;3.83;;;;;;;4.57;100.00;101108.44;5069896;28;20818;-49
2023/02/24 05:49:57;;;;;;;40.05;3.63;;;;;;;4.57;100.00;101093.28;5069537;28;20028;-49
2023/02/24 05:52:23;;;;;;;27.65;3.88;;;;;;;4.58;100.00;101089.66;5068319;28;20402;-50
2023/02/24 05:54:49;;;;;;;34.80;3.97;;;;;;;4.59;100.00;101074.50;5050849;28;20113;-50
2023/02/24 05:57:19;;;;;;;26.33;3.38;;;;;;;4.58;100.00;101078.13;5070150;28;20036;-49
2023/02/24 05:59:47;;;;;;;40.47;4.40;;;;;;;4.64;100.00;101076.75;5068468;28;20032;-49
2023/02/24 06:02:15;;;;;;;24.38;3.25;;;;;;;4.61;100.00;101072.53;5066207;28;20029;-48
2023/02/24 06:04:52;;;;;;;26.70;3.55;;;;;;;4.65;100.00;101063.28;5070304;28;20318;-50
2023/02/24 06:07:21;;;;;;;34.55;4.10;;;;;;;4.69;100.00;101069.19;5052755;28;20021;-49
2023/02/24 06:09:48;;;;;;;28.33;3.03;;;;;;;4.70;100.00;101074.38;5062560;28;20017;-49
2023/02/24 06:12:15;;;;;;;47.58;4.15;;;;;;;4.71;100.00;101069.88;5049079;28;20056;-51
2023/02/24 06:14:41;;;;;;;25.10;3.10;;;;;;;4.74;100.00;101064.25;5068384;28;20414;-50
2023/02/24 06:17:07;;;;;;;35.83;3.50;;;;;;;4.75;100.00;101055.28;5067993;28;20490;-51
2023/02/24 06:19:32;;;;;;;20.92;2.75;;;;;;;4.77;100.00;101048.84;5062122;28;20016;-49
2023/02/24 06:22:02;;;;;;;25.25;3.42;;;;;;;4.76;100.00;101038.31;5067135;28;20037;-50
2023/02/24 06:24:29;;;;;;;36.63;4.95;;;;;;;4.75;100.00;101034.78;5071224;28;20038;-50
2023/02/24 06:27:08;;;;;;;26.98;3.00;;;;;;;4.74;100.00;101030.47;5066894;28;20036;-49
2023/02/24 06:29:35;;;;;;;43.15;3.60;;;;;;;4.79;100.00;101027.34;5049529;28;20029;-48
2023/02/24 06:32:07;;;;;;;32.05;3.25;;;;;;;4.80;100.00;101034.38;5069070;28;20051;-48
2023/02/24 06:34:33;;;;;;;48.42;3.53;;;;;;;4.84;100.00;101019.78;5069195;28;20033;-50
2023/02/24 06:36:58;;;;;;;37.22;4.47;;;;;;;4.84;100.00;101022.44;5045563;28;20157;-48
2023/02/24 06:39:24;;;;;;;36.50;3.50;;;;;;;4.86;100.00;101017.81;5066723;28;20123;-50
2023/02/24 06:41:51;;;;;;;29.90;3.33;;;;;;;4.85;100.00;101021.47;5072059;28;20039;-49
2023/02/24 06:44:17;;;;;;;38.05;4.10;;;;;;;4.90;100.00;101018.38;5066617;28;20024;-50
2023/02/24 06:46:42;;;;;;;30.65;3.17;;;;;;;4.89;100.00;101017.53;5071276;28;20052;-48
2023/02/24 06:49:08;;;;;;;37.88;5.00;;;;;;;4.91;100.00;101004.91;5051538;28;20107;-48
2023/02/24 06:51:34;;;;;;;22.80;3.38;;;;;;;4.91;100.00;101004.91;5067261;28;20090;-49
2023/02/24 06:53:59;;;;;;;37.78;3.45;;;;;;;4.91;100.00;100998.72;5070163;28;20455;-51
2023/02/24 06:56:26;;;;;;;41.60;4.72;;;;;;;4.92;100.00;101000.41;5070072;28;20036;-48
2023/02/24 06:58:54;;;;;;;40.85;3.45;;;;;;;4.91;100.00;101004.91;5071608;28;20420;-49
2023/02/24 07:01:27;;;;;;;33.58;3.60;;;;;;;4.93;100.00;101012.78;5051131;28;20029;-48
2023/02/24 07:06:34;;;;;;;36.60;3.83;;;;;;;4.89;100.00;101012.19;5069686;28;20036;-50
2023/02/24 07:09:07;;;;;;;33.70;4.03;;;;;;;4.91;100.00;101015.56;5071935;28;20369;-50
2023/02/24 07:11:33;;;;;;;34.65;4.18;;;;;;;4.90;100.00;101013.91;5068394;28;20029;-51
2023/02/24 07:13:59;;;;;;;36.92;3.55;;;;;;;4.94;100.00;101009.94;5069858;28;20032;-49
2023/02/24 07:16:27;;;;;;;45.85;4.28;;;;;;;4.98;100.00;100999.84;5069429;28;20093;-50
2023/02/24 07:18:57;;;;;;;28.02;3.63;;;;;;;4.93;100.00;101005.59;5070743;28;20104;-48
2023/02/24 07:21:24;;;;;;;44.22;4.93;;;;;;;4.90;100.00;100992.56;5068823;28;20320;-48
2023/02/24 07:23:55;;;;;;;33.53;3.65;;;;;;;4.92;100.00;100997.75;5071253;28;20349;-49
2023/02/24 07:26:22;;;;;;;40.20;4.30;;;;;;;4.90;100.00;100997.91;5069662;28;20032;-50
2023/02/24 07:28:48;;;;;;;32.75;4.93;;;;;;;4.89;100.00;100982.84;5051130;28;20033;-50
2023/02/24 07:31:16;;;;;;;39.22;5.70;;;;;;;4.86;100.00;100977.81;5069169;28;20513;-49
2023/02/24 07:33:44;;;;;;;32.53;5.07;;;;;;;4.89;100.00;100982.03;5064124;28;20041;-49
2023/02/24 07:36:14;;;;;;;30.95;4.90;;;;;;;4.90;100.00;100978.34;5059753;28;21469;-48
2023/02/24 07:38:42;;;;;;;33.08;5.60;;;;;;;4.92;100.00;100985.25;5068741;28;20111;-49
2023/02/24 07:41:10;;;;;;;38.85;5.70;;;;;;;4.92;100.00;100982.56;5071863;28;20155;-49
2023/02/24 07:43:36;;;;;;;40.67;4.65;;;;;;;4.99;100.00;100981.03;5072171;28;20046;-49
2023/02/24 07:46:06;;;;;;;42.20;4.40;;;;;;;4.96;100.00;100975.16;5054677;28;20058;-50
2023/02/24 07:48:33;;;;;;;33.78;4.30;;;;;;;5.05;100.00;100974.28;5070583;28;20032;-49
2023/02/24 07:50:59;;;;;;;49.78;5.15;;;;;;;5.04;100.00;100969.94;5054657;28;20051;-46
2023/02/24 07:53:26;;;;;;;42.50;4.43;;;;;;;5.06;100.00;100967.97;5071611;28;20083;-49
2023/02/24 07:55:52;;;;;;;36.93;4.17;;;;;;;5.05;100.00;100972.47;5071786;28;20032;-47
2023/02/24 07:58:18;;;;;;;36.42;4.00;;;;;;;5.07;100.00;100967.81;5070810;28;20029;-49
2023/02/24 08:00:58;;;;;;;33.72;4.93;;;;;;;5.06;100.00;100960.81;5052406;28;20028;-48
2023/02/24 08:03:26;;;;;;;34.65;4.15;;;;;;;5.03;100.00;100961.09;5070896;28;20075;-48
2023/02/24 08:05:54;;;;;;;44.72;4.40;;;;;;;4.98;100.00;100958.03;5070848;28;20067;-49
2023/02/24 08:08:19;;;;;;;46.97;5.75;;;;;;;5.07;100.00;100954.47;5070473;28;20028;-47
2023/02/24 08:10:46;;;;;;;38.60;4.18;;;;;;;5.07;100.00;100951.81;5070320;28;20127;-48
2023/02/24 08:13:11;;;;;;;38.05;3.65;;;;;;;5.09;100.00;100958.84;5070373;28;20032;-49
2023/02/24 08:15:37;;;;;;;41.50;3.63;;;;;;;5.10;100.00;100961.34;5070518;28;20353;-49
2023/02/24 08:18:02;;;;;;;46.53;3.85;;;;;;;5.12;100.00;100956.72;5070594;28;20036;-48
2023/02/24 08:20:51;;;;;;;31.95;3.45;;;;;;;5.15;100.00;100956.44;5070392;28;20016;-49
2023/02/24 08:23:17;;;;;;;36.78;4.28;;;;;;;5.18;100.00;100958.81;5055802;28;20033;-49
2023/02/24 08:25:43;;;;;;;36.05;3.53;;;;;;;5.19;100.00;100954.34;5052885;28;20032;-49
2023/02/24 08:28:10;;;;;;;28.15;3.30;;;;;;;5.15;100.00;100947.59;5070501;28;20457;-48
2023/02/24 08:30:43;;;;;;;37.97;3.70;;;;;;;5.17;100.00;100946.47;5070874;28;20498;-48
2023/02/24 08:33:14;;;;;;;40.55;4.50;;;;;;;5.18;100.00;100941.97;5070207;28;20048;-48
2023/02/24 08:35:43;;;;;;;36.17;3.17;;;;;;;5.19;100.00;100941.00;5071860;28;20226;-49
2023/02/24 08:38:19;;;;;;;40.88;3.40;;;;;;;5.18;100.00;100926.78;5074533;28;20352;-48
2023/02/24 08:40:52;;;;;;;50.08;4.30;;;;;;;5.21;100.00;100921.19;5074248;28;20031;-48
2023/02/24 08:43:36;;;;;;;58.70;4.30;;;;;;;5.26;100.00;100918.06;5057151;28;20467;-47
2023/02/24 08:46:04;;;;;;;30.17;3.20;;;;;;;5.30;100.00;100916.78;5074228;28;20090;-47
2023/02/24 08:48:36;;;;;;;;;;;;;;;5.33;100.00;100916.50;5074616;28;20035;-48
2023/02/24 08:51:21;;;;;;;24.63;2.50;;;;;;;5.34;100.00;100915.50;5074047;28;19908;-49
2023/02/24 08:53:52;;;;;;;47.15;4.25;;;;;;;5.34;100.00;100922.66;5074188;28;20107;-46
2023/02/24 08:56:22;;;;;;;47.90;3.50;;;;;;;5.34;100.00;100918.16;5074272;28;20111;-47
2023/02/24 08:58:49;;;;;;;35.42;3.20;;;;;;;5.35;100.00;100930.53;5073552;28;20032;-48
2023/02/24 09:01:18;;;;;;;34.75;2.95;;;;;;;5.38;100.00;100911.56;5073831;28;20392;-48
2023/02/24 09:03:48;;;;;;;32.28;2.90;;;;;;;5.37;100.00;100920.56;5073970;28;20468;-47
2023/02/24 09:06:15;;;;;;;32.40;3.10;;;;;;;5.39;100.00;100913.22;5074019;28;20024;-54
2023/02/24 09:08:43;;;;;;;49.42;3.97;;;;;;;5.39;100.00;100907.91;5073955;28;20052;-48
2023/02/24 09:11:13;;;;;;;29.23;3.13;;;;;;;5.40;100.00;100908.75;5073886;28;20032;-45
2023/02/24 09:13:56;;;;;;;46.28;4.35;;;;;;;5.41;100.00;100910.44;5073821;28;20024;-46
2023/02/24 09:16:23;;;;;;;48.67;5.95;;;;;;;5.43;100.00;100909.31;5073891;28;20456;-44
2023/02/24 09:19:39;;;;;;;42.92;4.63;;;;;;;5.45;100.00;100915.34;5073157;28;20029;-45
2023/02/24 09:24:13;;;;;;;40.20;4.47;;;;;;;5.44;100.00;100900.28;5073301;28;20036;-45
2023/02/24 09:26:44;;;;;;;30.85;5.30;;;;;;;5.44;100.00;100912.81;5073957;28;20532;-44
2023/02/24 09:29:32;;;;;;;39.33;6.68;;;;;;;5.41;100.00;100903.25;5073591;28;20025;-47
2023/02/24 09:32:04;;;;;;;;;;;;;;;5.40;100.00;100898.91;5073827;28;20056;-46
2023/02/24 09:34:30;;;;;;;31.40;6.70;;;;;;;5.36;100.00;100900.19;5073269;28;19912;-48
2023/02/24 09:37:02;;;;;;;47.03;9.00;;;;;;;5.32;100.00;100893.47;5055249;28;20510;-47
2023/02/24 09:42:45;;;;;;;33.60;9.45;;;;;;;5.31;100.00;100899.78;4983822;28;20498;-46
2023/02/24 09:45:31;;;;;;;38.80;10.15;;;;;;;5.32;100.00;100896.16;5062826;28;20039;-48
2023/02/24 09:48:09;;;;;;;42.85;11.70;;;;;;;5.34;100.00;100893.31;5019187;28;20033;-47
2023/02/24 09:51:20;;;;;;;46.15;12.23;;;;;;;5.38;100.00;100895.56;5035273;28;20025;-47
2023/02/24 09:53:25;;;;;;;49.20;13.40;;;;;;;5.40;100.00;100892.75;5035651;28;20044;-48
2023/02/24 09:56:02;;;;;;;48.97;13.18;;;;;;;5.38;100.00;100884.88;5019045;28;20135;-47
2023/02/24 09:58:58;;;;;;;54.47;14.20;;;;;;;5.39;100.00;100899.88;5034924;28;20461;-48
2023/02/24 10:01:41;;;;;;;52.28;15.07;;;;;;;5.40;100.00;100898.91;5053134;28;20056;-47
2023/02/24 10:04:21;;;;;;;55.28;16.45;;;;;;;5.42;100.00;100888.91;5053207;28;20428;-49
2023/02/24 10:06:46;;;;;;;54.03;16.08;;;;;;;5.42;100.00;100896.94;5052902;28;20072;-47
2023/02/24 10:09:25;;;;;;;50.78;16.23;;;;;;;5.44;100.00;100888.78;5034165;28;20170;-47
2023/02/24 10:11:53;;;;;;;47.40;16.80;;;;;;;5.45;100.00;100882.44;5034878;28;20083;-47
2023/02/24 10:14:39;;;;;;;56.28;17.25;;;;;;;5.44;100.00;100884.28;5034314;28;20108;-48
2023/02/24 10:17:23;;;;;;;64.15;17.52;;;;;;;5.43;100.00;100887.13;5052089;28;20040;-47
2023/02/24 10:19:58;;;;;;;57.78;19.27;;;;;;;5.46;100.00;100882.31;5052283;28;20121;-48
2023/02/24 10:22:33;;;;;;;65.85;19.67;;;;;;;5.46;100.00;100876.97;5052110;28;20021;-48
2023/02/24 10:25:23;;;;;;;60.50;18.92;;;;;;;5.48;100.00;100874.16;5052236;28;20497;-49
2023/02/24 10:27:56;;;;;;;50.22;19.33;;;;;;;5.48;100.00;100880.34;5052211;28;20040;-50
2023/02/24 10:30:45;;;;;;;52.40;19.17;;;;;;;5.55;100.00;100877.06;5051991;28;20099;-47
2023/02/24 10:33:27;;;;;;;52.10;18.15;;;;;;;5.56;100.00;100878.75;5017842;28;20056;-49
2023/02/24 10:36:11;;;;;;;48.33;18.58;;;;;;;5.55;100.00;100871.72;5017380;28;20039;-48
2023/02/24 10:38:39;;;;;;;49.47;19.67;;;;;;;5.58;100.00;100866.09;5052048;28;20036;-49
2023/02/24 10:41:08;;;;;;;48.20;17.73;;;;;;;5.61;100.00;100863.13;5051892;28;20032;-51
2023/02/24 10:43:44;;;;;;;;;;;;;;;5.61;100.00;100866.66;5034856;28;20020;-49
2023/02/24 10:46:26;;;;;;;45.00;18.52;;;;;;;5.58;100.00;100858.94;5035685;28;19908;-49
2023/02/24 10:48:59;;;;;;;43.15;18.75;;;;;;;5.53;100.00;100860.34;5052034;28;20029;-49
2023/02/24 10:51:31;;;;;;;41.38;18.25;;;;;;;5.57;100.00;100861.75;5051846;28;20028;-47
2023/02/24 10:54:43;;;;;;;46.08;18.65;;;;;;;5.60;100.00;100872.13;5051710;28;20373;-48
2023/02/24 10:57:35;;;;;;;52.50;17.60;;;;;;;5.57;100.00;100864.41;5052144;28;20033;-46
2023/02/24 11:00:29;;;;;;;33.67;16.98;;;;;;;5.65;100.00;100870.69;5037224;28;20111;-48
2023/02/24 11:03:24;;;;;;;36.90;17.10;;;;;;;5.68;100.00;100864.19;5051788;28;20044;-50
2023/02/24 11:06:29;;;;;;;39.85;17.27;;;;;;;5.75;100.00;100870.63;5036319;28;20524;-53
2023/02/24 11:08:43;;;;;;;35.85;16.38;;;;;;;5.79;100.00;100871.16;5043436;28;20428;-54
2023/02/24 11:11:24;;;;;;;38.85;16.77;;;;;;;5.80;100.00;100862.19;5051500;28;20041;-57
2023/02/24 11:19:31;;;;;;;45.13;18.48;;;;;;;5.85;100.00;100859.91;5051764;28;20043;-50
2023/02/24 11:21:56;;;;;;;47.15;18.48;;;;;;;5.81;100.00;100859.34;5051488;28;20025;-50
2023/02/24 11:24:22;;;;;;;53.28;19.40;;;;;;;5.84;100.00;100853.69;5033620;28;20150;-50
2023/02/24 11:26:48;;;;;;;55.22;18.65;;;;;;;5.89;100.00;100845.22;5051093;28;20196;-51
2023/02/24 11:29:30;;;;;;;49.00;19.48;;;;;;;5.97;100.00;100848.03;5051003;28;20029;-51
2023/02/24 11:32:07;;;;;;;49.47;18.02;;;;;;;6.02;100.00;100844.91;5050699;28;20049;-52
2023/02/24 11:34:48;;;;;;;51.10;17.40;;;;;;;6.08;100.00;100844.28;5051267;28;20021;-53
2023/02/24 11:37:41;;;;;;;56.78;16.38;;;;;;;6.22;100.00;100843.75;5050781;28;20053;-53
2023/02/24 11:40:10;;;;;;;48.15;15.75;;;;;;;6.27;100.00;100833.44;5051277;28;20028;-52
2023/02/24 11:42:45;;;;;;;51.95;14.02;;;;;;;6.36;100.00;100827.16;5050262;28;20746;-50
2023/02/24 11:45:32;;;;;;;69.18;16.30;;;;;;;6.48;100.00;100837.63;5050861;28;20396;-48
2023/02/24 11:48:18;;;;;;;;;;;;;;;6.66;100.00;100835.75;5033358;28;20033;-50
2023/02/24 11:51:15;;;;;;;53.50;13.70;;;;;;;6.78;100.00;100822.94;5051109;28;19909;-50
2023/02/24 11:53:44;;;;;;;;;;;;;;;6.93;100.00;100833.91;5028918;28;20048;-49
2023/02/24 11:56:23;;;;;;;53.47;11.55;;;;;;;7.03;100.00;100824.78;5032063;28;19959;-49
2023/02/24 11:58:50;;;;;;;53.85;10.90;;;;;;;7.11;100.00;100820.44;5032949;28;20446;-49